Fort Jennings, Ohio
Current Conditions -  °F | °C
As of 10:53 PM on Sunday 21 Dec 2014 (Local Time) from KAOH Reporting Station
Haze Haze  
Wind Chill: 22°   Ceiling: Unl
Heat Index: 30°   Visibility: 6mi
Dew Point: 23°   Wind: 8mph
Humidity: 75%   Direction: 130°SE
Pressure: 30.14"   Gusts: NA
Location:  40.91°N, 84.3°W
Report Text: KAOH 220353Z AUTO 13007KT 6SM HZ CLR M01/M05 A3014 RMK AO2 SLP217 T10111050
Loading
Personal Weather Stations






























Interactive Weather Map New forecast layout! Learn more

10-Day Weather Forecast

Advertisements
Track Severe Weather on mobile